sensor_id;sensor_type;location;lat;lon;timestamp;P1;durP1;ratioP1;P2;durP2;ratioP2
22034;SDS011;11181;51.002;4.356;2023-05-07T00:00:35;6.70;;;3.53;;
22034;SDS011;11181;51.002;4.356;2023-05-07T00:03:04;5.90;;;3.47;;
22034;SDS011;11181;51.002;4.356;2023-05-07T00:05:31;8.50;;;4.60;;
22034;SDS011;11181;51.002;4.356;2023-05-07T00:07:58;4.63;;;3.10;;
22034;SDS011;11181;51.002;4.356;2023-05-07T00:10:25;5.13;;;3.63;;
22034;SDS011;11181;51.002;4.356;2023-05-07T00:12:52;7.30;;;4.00;;
22034;SDS011;11181;51.002;4.356;2023-05-07T00:15:19;5.23;;;3.70;;
22034;SDS011;11181;51.002;4.356;2023-05-07T00:17:46;5.30;;;3.77;;
22034;SDS011;11181;51.002;4.356;2023-05-07T00:20:14;11.40;;;4.27;;
22034;SDS011;11181;51.002;4.356;2023-05-07T00:22:41;6.27;;;4.60;;
22034;SDS011;11181;51.002;4.356;2023-05-07T00:25:08;15.40;;;5.20;;
22034;SDS011;11181;51.002;4.356;2023-05-07T00:27:35;7.53;;;4.63;;
22034;SDS011;11181;51.002;4.356;2023-05-07T00:30:02;9.87;;;3.93;;
22034;SDS011;11181;51.002;4.356;2023-05-07T00:32:30;5.10;;;4.27;;
22034;SDS011;11181;51.002;4.356;2023-05-07T00:34:56;5.23;;;3.90;;
22034;SDS011;11181;51.002;4.356;2023-05-07T00:37:25;7.93;;;4.33;;
22034;SDS011;11181;51.002;4.356;2023-05-07T00:39:51;11.53;;;4.47;;
22034;SDS011;11181;51.002;4.356;2023-05-07T00:42:18;5.97;;;3.87;;
22034;SDS011;11181;51.002;4.356;2023-05-07T00:44:45;7.27;;;3.77;;
22034;SDS011;11181;51.002;4.356;2023-05-07T00:47:12;5.10;;;3.93;;
22034;SDS011;11181;51.002;4.356;2023-05-07T00:49:41;4.97;;;3.73;;
22034;SDS011;11181;51.002;4.356;2023-05-07T00:52:09;7.60;;;4.57;;
22034;SDS011;11181;51.002;4.356;2023-05-07T00:54:38;7.13;;;3.80;;
22034;SDS011;11181;51.002;4.356;2023-05-07T00:57:07;7.83;;;4.63;;
22034;SDS011;11181;51.002;4.356;2023-05-07T00:59:36;8.50;;;5.27;;
22034;SDS011;11181;51.002;4.356;2023-05-07T01:02:03;5.87;;;4.67;;
22034;SDS011;11181;51.002;4.356;2023-05-07T01:04:30;8.37;;;4.57;;
22034;SDS011;11181;51.002;4.356;2023-05-07T01:06:57;8.17;;;4.47;;
22034;SDS011;11181;51.002;4.356;2023-05-07T01:09:25;6.33;;;3.67;;
22034;SDS011;11181;51.002;4.356;2023-05-07T01:11:54;5.77;;;4.17;;
22034;SDS011;11181;51.002;4.356;2023-05-07T01:14:22;5.63;;;4.80;;
22034;SDS011;11181;51.002;4.356;2023-05-07T01:16:50;7.57;;;4.63;;
22034;SDS011;11181;51.002;4.356;2023-05-07T01:19:18;8.27;;;4.60;;
22034;SDS011;11181;51.002;4.356;2023-05-07T01:21:46;5.17;;;4.67;;
22034;SDS011;11181;51.002;4.356;2023-05-07T01:24:16;8.67;;;4.73;;
22034;SDS011;11181;51.002;4.356;2023-05-07T01:26:44;7.20;;;4.20;;
22034;SDS011;11181;51.002;4.356;2023-05-07T01:29:11;5.20;;;4.17;;
22034;SDS011;11181;51.002;4.356;2023-05-07T01:31:37;4.40;;;3.73;;
22034;SDS011;11181;51.002;4.356;2023-05-07T01:34:06;6.07;;;4.27;;
22034;SDS011;11181;51.002;4.356;2023-05-07T01:36:35;7.57;;;5.07;;
22034;SDS011;11181;51.002;4.356;2023-05-07T01:39:04;6.70;;;4.33;;
22034;SDS011;11181;51.002;4.356;2023-05-07T01:41:34;8.90;;;4.27;;
22034;SDS011;11181;51.002;4.356;2023-05-07T01:44:01;7.87;;;4.07;;
22034;SDS011;11181;51.002;4.356;2023-05-07T01:46:30;8.03;;;4.73;;
22034;SDS011;11181;51.002;4.356;2023-05-07T01:48:58;6.97;;;4.37;;
22034;SDS011;11181;51.002;4.356;2023-05-07T01:51:25;6.10;;;4.60;;
22034;SDS011;11181;51.002;4.356;2023-05-07T01:53:52;5.90;;;4.33;;
22034;SDS011;11181;51.002;4.356;2023-05-07T01:56:19;6.90;;;4.77;;
22034;SDS011;11181;51.002;4.356;2023-05-07T01:58:48;6.23;;;4.80;;
22034;SDS011;11181;51.002;4.356;2023-05-07T02:01:16;6.33;;;4.57;;
22034;SDS011;11181;51.002;4.356;2023-05-07T02:03:43;8.33;;;4.77;;
22034;SDS011;11181;51.002;4.356;2023-05-07T02:06:10;9.10;;;5.27;;
22034;SDS011;11181;51.002;4.356;2023-05-07T02:08:37;8.67;;;4.57;;
22034;SDS011;11181;51.002;4.356;2023-05-07T02:11:04;6.13;;;4.10;;
22034;SDS011;11181;51.002;4.356;2023-05-07T02:13:31;6.80;;;4.77;;
22034;SDS011;11181;51.002;4.356;2023-05-07T02:16:00;7.47;;;4.10;;
22034;SDS011;11181;51.002;4.356;2023-05-07T02:18:27;5.20;;;4.30;;
22034;SDS011;11181;51.002;4.356;2023-05-07T02:20:54;5.37;;;4.43;;
22034;SDS011;11181;51.002;4.356;2023-05-07T02:23:21;5.90;;;4.37;;
22034;SDS011;11181;51.002;4.356;2023-05-07T02:25:48;6.27;;;5.23;;
22034;SDS011;11181;51.002;4.356;2023-05-07T02:28:15;5.63;;;4.47;;
22034;SDS011;11181;51.002;4.356;2023-05-07T02:30:42;5.27;;;4.77;;
22034;SDS011;11181;51.002;4.356;2023-05-07T02:33:10;6.23;;;4.60;;
22034;SDS011;11181;51.002;4.356;2023-05-07T02:35:37;6.50;;;4.80;;
22034;SDS011;11181;51.002;4.356;2023-05-07T02:38:04;6.67;;;4.10;;
22034;SDS011;11181;51.002;4.356;2023-05-07T02:40:31;5.10;;;4.60;;
22034;SDS011;11181;51.002;4.356;2023-05-07T02:43:03;6.47;;;4.30;;
22034;SDS011;11181;51.002;4.356;2023-05-07T02:45:30;7.17;;;4.63;;
22034;SDS011;11181;51.002;4.356;2023-05-07T02:47:57;8.40;;;4.80;;
22034;SDS011;11181;51.002;4.356;2023-05-07T02:50:26;7.13;;;5.07;;
22034;SDS011;11181;51.002;4.356;2023-05-07T02:52:53;9.77;;;4.90;;
22034;SDS011;11181;51.002;4.356;2023-05-07T02:55:20;6.27;;;4.77;;
22034;SDS011;11181;51.002;4.356;2023-05-07T02:57:46;4.87;;;4.37;;
22034;SDS011;11181;51.002;4.356;2023-05-07T03:00:14;6.63;;;4.97;;
22034;SDS011;11181;51.002;4.356;2023-05-07T03:02:42;8.57;;;5.33;;
22034;SDS011;11181;51.002;4.356;2023-05-07T03:05:09;5.47;;;4.73;;
22034;SDS011;11181;51.002;4.356;2023-05-07T03:07:38;6.73;;;5.40;;
22034;SDS011;11181;51.002;4.356;2023-05-07T03:10:06;7.87;;;4.80;;
22034;SDS011;11181;51.002;4.356;2023-05-07T03:12:33;8.33;;;6.53;;
22034;SDS011;11181;51.002;4.356;2023-05-07T03:15:00;7.77;;;6.40;;
22034;SDS011;11181;51.002;4.356;2023-05-07T03:17:27;9.50;;;7.47;;
22034;SDS011;11181;51.002;4.356;2023-05-07T03:19:54;7.90;;;6.60;;
22034;SDS011;11181;51.002;4.356;2023-05-07T03:22:21;8.63;;;6.57;;
22034;SDS011;11181;51.002;4.356;2023-05-07T03:24:49;7.17;;;5.77;;
22034;SDS011;11181;51.002;4.356;2023-05-07T03:27:16;10.80;;;6.37;;
22034;SDS011;11181;51.002;4.356;2023-05-07T03:29:43;8.00;;;6.37;;
22034;SDS011;11181;51.002;4.356;2023-05-07T03:32:10;8.23;;;6.10;;
22034;SDS011;11181;51.002;4.356;2023-05-07T03:34:37;9.03;;;5.70;;
22034;SDS011;11181;51.002;4.356;2023-05-07T03:37:04;11.70;;;6.47;;
22034;SDS011;11181;51.002;4.356;2023-05-07T03:39:31;10.97;;;7.20;;
22034;SDS011;11181;51.002;4.356;2023-05-07T03:41:59;7.40;;;6.20;;
22034;SDS011;11181;51.002;4.356;2023-05-07T03:44:27;8.67;;;6.50;;
22034;SDS011;11181;51.002;4.356;2023-05-07T03:46:54;8.87;;;6.27;;
22034;SDS011;11181;51.002;4.356;2023-05-07T03:49:21;8.87;;;6.90;;
22034;SDS011;11181;51.002;4.356;2023-05-07T03:51:48;9.23;;;6.93;;
22034;SDS011;11181;51.002;4.356;2023-05-07T03:54:15;9.67;;;7.23;;
22034;SDS011;11181;51.002;4.356;2023-05-07T03:56:41;9.37;;;7.07;;
22034;SDS011;11181;51.002;4.356;2023-05-07T03:59:10;7.57;;;6.27;;
22034;SDS011;11181;51.002;4.356;2023-05-07T04:01:37;9.33;;;6.57;;
22034;SDS011;11181;51.002;4.356;2023-05-07T04:04:10;7.13;;;6.37;;
22034;SDS011;11181;51.002;4.356;2023-05-07T04:06:39;11.00;;;6.73;;
22034;SDS011;11181;51.002;4.356;2023-05-07T04:09:06;8.27;;;6.87;;
22034;SDS011;11181;51.002;4.356;2023-05-07T04:11:33;9.20;;;7.17;;
22034;SDS011;11181;51.002;4.356;2023-05-07T04:14:01;8.93;;;6.43;;
22034;SDS011;11181;51.002;4.356;2023-05-07T04:16:29;8.07;;;7.23;;
22034;SDS011;11181;51.002;4.356;2023-05-07T04:18:56;7.93;;;6.23;;
22034;SDS011;11181;51.002;4.356;2023-05-07T04:21:23;7.23;;;6.47;;
22034;SDS011;11181;51.002;4.356;2023-05-07T04:23:51;10.60;;;7.43;;
22034;SDS011;11181;51.002;4.356;2023-05-07T04:26:18;8.97;;;6.87;;
22034;SDS011;11181;51.002;4.356;2023-05-07T04:28:46;12.80;;;7.77;;
22034;SDS011;11181;51.002;4.356;2023-05-07T04:31:13;10.53;;;8.13;;
22034;SDS011;11181;51.002;4.356;2023-05-07T04:33:41;10.53;;;6.83;;
22034;SDS011;11181;51.002;4.356;2023-05-07T04:36:08;9.47;;;7.27;;
22034;SDS011;11181;51.002;4.356;2023-05-07T04:38:36;8.80;;;7.17;;
22034;SDS011;11181;51.002;4.356;2023-05-07T04:41:04;9.37;;;7.13;;
22034;SDS011;11181;51.002;4.356;2023-05-07T04:43:32;7.27;;;6.57;;
22034;SDS011;11181;51.002;4.356;2023-05-07T04:45:58;6.70;;;6.00;;
22034;SDS011;11181;51.002;4.356;2023-05-07T04:48:25;8.53;;;6.50;;
22034;SDS011;11181;51.002;4.356;2023-05-07T04:50:55;9.53;;;6.77;;
22034;SDS011;11181;51.002;4.356;2023-05-07T04:53:22;8.97;;;6.90;;
22034;SDS011;11181;51.002;4.356;2023-05-07T04:55:49;10.17;;;6.57;;
22034;SDS011;11181;51.002;4.356;2023-05-07T04:58:20;8.13;;;6.53;;
22034;SDS011;11181;51.002;4.356;2023-05-07T05:00:47;9.43;;;7.17;;
22034;SDS011;11181;51.002;4.356;2023-05-07T05:03:14;7.23;;;6.50;;
22034;SDS011;11181;51.002;4.356;2023-05-07T05:05:41;10.37;;;6.53;;
22034;SDS011;11181;51.002;4.356;2023-05-07T05:08:09;8.00;;;7.17;;
22034;SDS011;11181;51.002;4.356;2023-05-07T05:10:36;9.20;;;7.33;;
22034;SDS011;11181;51.002;4.356;2023-05-07T05:13:03;10.47;;;7.00;;
22034;SDS011;11181;51.002;4.356;2023-05-07T05:15:30;10.43;;;7.03;;
22034;SDS011;11181;51.002;4.356;2023-05-07T05:17:57;10.53;;;6.63;;
22034;SDS011;11181;51.002;4.356;2023-05-07T05:20:24;10.17;;;7.80;;
22034;SDS011;11181;51.002;4.356;2023-05-07T05:22:50;8.03;;;7.17;;
22034;SDS011;11181;51.002;4.356;2023-05-07T05:25:19;14.80;;;6.70;;
22034;SDS011;11181;51.002;4.356;2023-05-07T05:27:46;8.43;;;6.73;;
22034;SDS011;11181;51.002;4.356;2023-05-07T05:30:13;11.47;;;7.33;;
22034;SDS011;11181;51.002;4.356;2023-05-07T05:32:40;10.23;;;7.67;;
22034;SDS011;11181;51.002;4.356;2023-05-07T05:35:07;7.63;;;6.93;;
22034;SDS011;11181;51.002;4.356;2023-05-07T05:37:34;8.90;;;7.83;;
22034;SDS011;11181;51.002;4.356;2023-05-07T05:40:01;11.70;;;7.67;;
22034;SDS011;11181;51.002;4.356;2023-05-07T05:42:30;10.87;;;8.33;;
22034;SDS011;11181;51.002;4.356;2023-05-07T05:44:57;8.43;;;7.53;;
22034;SDS011;11181;51.002;4.356;2023-05-07T05:47:24;8.10;;;7.30;;
22034;SDS011;11181;51.002;4.356;2023-05-07T05:49:51;9.10;;;7.80;;
22034;SDS011;11181;51.002;4.356;2023-05-07T05:52:18;8.27;;;7.47;;
22034;SDS011;11181;51.002;4.356;2023-05-07T05:54:44;11.43;;;7.73;;
22034;SDS011;11181;51.002;4.356;2023-05-07T05:57:11;8.70;;;7.37;;
22034;SDS011;11181;51.002;4.356;2023-05-07T05:59:40;10.67;;;7.17;;
22034;SDS011;11181;51.002;4.356;2023-05-07T06:02:06;9.97;;;7.90;;
22034;SDS011;11181;51.002;4.356;2023-05-07T06:04:33;10.13;;;7.73;;
22034;SDS011;11181;51.002;4.356;2023-05-07T06:07:00;9.77;;;8.13;;
22034;SDS011;11181;51.002;4.356;2023-05-07T06:09:27;8.73;;;7.87;;
22034;SDS011;11181;51.002;4.356;2023-05-07T06:11:54;11.43;;;7.90;;
22034;SDS011;11181;51.002;4.356;2023-05-07T06:14:21;9.50;;;7.33;;
22034;SDS011;11181;51.002;4.356;2023-05-07T06:16:49;8.47;;;7.53;;
22034;SDS011;11181;51.002;4.356;2023-05-07T06:19:16;8.93;;;7.83;;
22034;SDS011;11181;51.002;4.356;2023-05-07T06:21:48;12.50;;;8.10;;
22034;SDS011;11181;51.002;4.356;2023-05-07T06:24:14;8.13;;;7.17;;
22034;SDS011;11181;51.002;4.356;2023-05-07T06:26:41;8.73;;;7.23;;
22034;SDS011;11181;51.002;4.356;2023-05-07T06:29:08;7.93;;;7.13;;
22034;SDS011;11181;51.002;4.356;2023-05-07T06:31:35;9.27;;;8.30;;
22034;SDS011;11181;51.002;4.356;2023-05-07T06:34:03;11.63;;;7.93;;
22034;SDS011;11181;51.002;4.356;2023-05-07T06:36:30;8.90;;;7.77;;
22034;SDS011;11181;51.002;4.356;2023-05-07T06:38:57;10.27;;;7.70;;
22034;SDS011;11181;51.002;4.356;2023-05-07T06:41:24;12.13;;;8.27;;
22034;SDS011;11181;51.002;4.356;2023-05-07T06:43:52;9.23;;;7.47;;
22034;SDS011;11181;51.002;4.356;2023-05-07T06:46:18;12.40;;;7.50;;
22034;SDS011;11181;51.002;4.356;2023-05-07T06:48:45;9.33;;;8.43;;
22034;SDS011;11181;51.002;4.356;2023-05-07T06:51:14;9.33;;;8.33;;
22034;SDS011;11181;51.002;4.356;2023-05-07T06:53:40;12.00;;;8.70;;
22034;SDS011;11181;51.002;4.356;2023-05-07T06:56:07;10.50;;;8.77;;
22034;SDS011;11181;51.002;4.356;2023-05-07T06:58:34;9.60;;;8.27;;
22034;SDS011;11181;51.002;4.356;2023-05-07T07:01:01;11.93;;;9.30;;
22034;SDS011;11181;51.002;4.356;2023-05-07T07:03:28;14.90;;;9.40;;
22034;SDS011;11181;51.002;4.356;2023-05-07T07:05:56;9.53;;;7.73;;
22034;SDS011;11181;51.002;4.356;2023-05-07T07:08:24;9.87;;;7.40;;
22034;SDS011;11181;51.002;4.356;2023-05-07T07:10:51;10.27;;;7.07;;
22034;SDS011;11181;51.002;4.356;2023-05-07T07:13:18;10.70;;;7.77;;
22034;SDS011;11181;51.002;4.356;2023-05-07T07:15:45;12.63;;;7.77;;
22034;SDS011;11181;51.002;4.356;2023-05-07T07:18:12;11.70;;;8.13;;
22034;SDS011;11181;51.002;4.356;2023-05-07T07:20:39;8.20;;;6.93;;
22034;SDS011;11181;51.002;4.356;2023-05-07T07:23:06;8.73;;;7.20;;
22034;SDS011;11181;51.002;4.356;2023-05-07T07:25:34;9.43;;;6.70;;
22034;SDS011;11181;51.002;4.356;2023-05-07T07:28:01;8.00;;;6.37;;
22034;SDS011;11181;51.002;4.356;2023-05-07T07:30:28;9.73;;;6.30;;
22034;SDS011;11181;51.002;4.356;2023-05-07T07:32:55;12.63;;;7.30;;
22034;SDS011;11181;51.002;4.356;2023-05-07T07:35:27;11.30;;;6.17;;
22034;SDS011;11181;51.002;4.356;2023-05-07T07:37:54;10.20;;;6.40;;
22034;SDS011;11181;51.002;4.356;2023-05-07T07:40:21;10.53;;;6.13;;
22034;SDS011;11181;51.002;4.356;2023-05-07T07:42:49;8.73;;;5.97;;
22034;SDS011;11181;51.002;4.356;2023-05-07T07:45:16;10.73;;;6.27;;
22034;SDS011;11181;51.002;4.356;2023-05-07T07:47:43;9.47;;;5.40;;
22034;SDS011;11181;51.002;4.356;2023-05-07T07:50:10;8.07;;;5.40;;
22034;SDS011;11181;51.002;4.356;2023-05-07T07:52:37;14.60;;;6.00;;
22034;SDS011;11181;51.002;4.356;2023-05-07T07:55:05;6.60;;;5.67;;
22034;SDS011;11181;51.002;4.356;2023-05-07T07:57:32;6.73;;;4.07;;
22034;SDS011;11181;51.002;4.356;2023-05-07T08:00:01;5.97;;;4.40;;
22034;SDS011;11181;51.002;4.356;2023-05-07T08:02:28;8.73;;;4.67;;
22034;SDS011;11181;51.002;4.356;2023-05-07T08:04:55;6.43;;;4.27;;
22034;SDS011;11181;51.002;4.356;2023-05-07T08:07:22;11.23;;;4.90;;
22034;SDS011;11181;51.002;4.356;2023-05-07T08:09:49;6.57;;;4.50;;
22034;SDS011;11181;51.002;4.356;2023-05-07T08:12:16;7.47;;;4.43;;
22034;SDS011;11181;51.002;4.356;2023-05-07T08:14:43;10.67;;;4.90;;
22034;SDS011;11181;51.002;4.356;2023-05-07T08:17:11;9.67;;;5.07;;
22034;SDS011;11181;51.002;4.356;2023-05-07T08:19:40;8.77;;;4.87;;
22034;SDS011;11181;51.002;4.356;2023-05-07T08:22:07;7.47;;;4.07;;
22034;SDS011;11181;51.002;4.356;2023-05-07T08:24:35;6.40;;;4.47;;
22034;SDS011;11181;51.002;4.356;2023-05-07T08:27:02;7.00;;;4.10;;
22034;SDS011;11181;51.002;4.356;2023-05-07T08:29:29;7.30;;;4.30;;
22034;SDS011;11181;51.002;4.356;2023-05-07T08:31:56;9.27;;;4.30;;
22034;SDS011;11181;51.002;4.356;2023-05-07T08:34:24;7.87;;;4.30;;
22034;SDS011;11181;51.002;4.356;2023-05-07T08:36:51;7.57;;;4.07;;
22034;SDS011;11181;51.002;4.356;2023-05-07T08:39:18;7.63;;;5.23;;
22034;SDS011;11181;51.002;4.356;2023-05-07T08:41:45;8.37;;;4.67;;
22034;SDS011;11181;51.002;4.356;2023-05-07T08:44:14;9.43;;;4.33;;
22034;SDS011;11181;51.002;4.356;2023-05-07T08:46:44;5.20;;;4.10;;
22034;SDS011;11181;51.002;4.356;2023-05-07T08:49:13;8.27;;;4.33;;
22034;SDS011;11181;51.002;4.356;2023-05-07T08:51:42;10.10;;;4.30;;
22034;SDS011;11181;51.002;4.356;2023-05-07T08:54:09;10.03;;;4.20;;
22034;SDS011;11181;51.002;4.356;2023-05-07T08:56:38;5.67;;;3.73;;
22034;SDS011;11181;51.002;4.356;2023-05-07T08:59:05;8.10;;;3.70;;
22034;SDS011;11181;51.002;4.356;2023-05-07T09:01:32;6.10;;;3.80;;
22034;SDS011;11181;51.002;4.356;2023-05-07T09:04:01;7.73;;;4.20;;
22034;SDS011;11181;51.002;4.356;2023-05-07T09:06:28;7.63;;;3.67;;
22034;SDS011;11181;51.002;4.356;2023-05-07T09:08:56;8.17;;;3.03;;
22034;SDS011;11181;51.002;4.356;2023-05-07T09:11:26;7.13;;;3.47;;
22034;SDS011;11181;51.002;4.356;2023-05-07T09:13:53;4.87;;;3.87;;
22034;SDS011;11181;51.002;4.356;2023-05-07T09:16:23;7.13;;;3.47;;
22034;SDS011;11181;51.002;4.356;2023-05-07T09:18:51;5.83;;;3.40;;
22034;SDS011;11181;51.002;4.356;2023-05-07T09:21:19;5.47;;;3.63;;
22034;SDS011;11181;51.002;4.356;2023-05-07T09:23:48;3.40;;;3.10;;
22034;SDS011;11181;51.002;4.356;2023-05-07T09:26:17;4.97;;;3.30;;
22034;SDS011;11181;51.002;4.356;2023-05-07T09:28:44;8.20;;;3.20;;
22034;SDS011;11181;51.002;4.356;2023-05-07T09:31:11;6.37;;;4.27;;
22034;SDS011;11181;51.002;4.356;2023-05-07T09:33:38;6.43;;;3.80;;
22034;SDS011;11181;51.002;4.356;2023-05-07T09:36:06;4.13;;;3.13;;
22034;SDS011;11181;51.002;4.356;2023-05-07T09:38:35;5.20;;;3.07;;
22034;SDS011;11181;51.002;4.356;2023-05-07T09:41:03;7.10;;;4.30;;
22034;SDS011;11181;51.002;4.356;2023-05-07T09:43:33;5.43;;;2.80;;
22034;SDS011;11181;51.002;4.356;2023-05-07T09:46:05;7.53;;;3.33;;
22034;SDS011;11181;51.002;4.356;2023-05-07T09:48:37;6.20;;;3.60;;
22034;SDS011;11181;51.002;4.356;2023-05-07T09:51:06;7.23;;;3.10;;
22034;SDS011;11181;51.002;4.356;2023-05-07T09:53:40;4.93;;;2.77;;
22034;SDS011;11181;51.002;4.356;2023-05-07T09:56:10;6.90;;;2.97;;
22034;SDS011;11181;51.002;4.356;2023-05-07T09:58:40;4.83;;;2.83;;
22034;SDS011;11181;51.002;4.356;2023-05-07T10:01:08;5.27;;;3.20;;
22034;SDS011;11181;51.002;4.356;2023-05-07T10:03:38;6.43;;;3.30;;
22034;SDS011;11181;51.002;4.356;2023-05-07T10:06:08;4.80;;;3.13;;
22034;SDS011;11181;51.002;4.356;2023-05-07T10:08:35;5.73;;;3.10;;
22034;SDS011;11181;51.002;4.356;2023-05-07T10:11:03;5.83;;;3.53;;
22034;SDS011;11181;51.002;4.356;2023-05-07T10:13:31;6.93;;;3.00;;
22034;SDS011;11181;51.002;4.356;2023-05-07T10:16:01;5.63;;;3.27;;
22034;SDS011;11181;51.002;4.356;2023-05-07T10:18:29;4.57;;;2.60;;
22034;SDS011;11181;51.002;4.356;2023-05-07T10:20:59;3.20;;;2.70;;
22034;SDS011;11181;51.002;4.356;2023-05-07T10:23:30;4.20;;;2.70;;
22034;SDS011;11181;51.002;4.356;2023-05-07T10:25:59;5.30;;;3.40;;
22034;SDS011;11181;51.002;4.356;2023-05-07T10:28:28;3.37;;;2.50;;
22034;SDS011;11181;51.002;4.356;2023-05-07T10:30:59;3.77;;;2.77;;
22034;SDS011;11181;51.002;4.356;2023-05-07T10:33:36;4.70;;;3.20;;
22034;SDS011;11181;51.002;4.356;2023-05-07T10:36:05;6.13;;;3.40;;
22034;SDS011;11181;51.002;4.356;2023-05-07T10:38:33;6.00;;;3.03;;
22034;SDS011;11181;51.002;4.356;2023-05-07T10:41:00;7.60;;;3.60;;
22034;SDS011;11181;51.002;4.356;2023-05-07T10:43:38;6.57;;;3.13;;
22034;SDS011;11181;51.002;4.356;2023-05-07T10:46:11;5.73;;;3.00;;
22034;SDS011;11181;51.002;4.356;2023-05-07T10:51:41;4.17;;;2.67;;
22034;SDS011;11181;51.002;4.356;2023-05-07T10:54:22;6.03;;;3.57;;
22034;SDS011;11181;51.002;4.356;2023-05-07T10:56:52;4.83;;;2.13;;
22034;SDS011;11181;51.002;4.356;2023-05-07T11:02:09;2.53;;;1.90;;
22034;SDS011;11181;51.002;4.356;2023-05-07T11:04:39;2.90;;;2.27;;
22034;SDS011;11181;51.002;4.356;2023-05-07T11:10:01;2.70;;;1.93;;
22034;SDS011;11181;51.002;4.356;2023-05-07T11:18:04;2.77;;;2.00;;
22034;SDS011;11181;51.002;4.356;2023-05-07T11:20:44;3.43;;;2.27;;
22034;SDS011;11181;51.002;4.356;2023-05-07T11:26:41;4.57;;;2.53;;
22034;SDS011;11181;51.002;4.356;2023-05-07T11:29:11;3.07;;;2.00;;
22034;SDS011;11181;51.002;4.356;2023-05-07T11:31:38;3.50;;;2.30;;
22034;SDS011;11181;51.002;4.356;2023-05-07T11:34:07;7.00;;;2.60;;
22034;SDS011;11181;51.002;4.356;2023-05-07T11:36:35;2.73;;;2.27;;
22034;SDS011;11181;51.002;4.356;2023-05-07T11:39:22;3.47;;;2.40;;
22034;SDS011;11181;51.002;4.356;2023-05-07T11:41:50;6.60;;;2.73;;
22034;SDS011;11181;51.002;4.356;2023-05-07T11:44:17;2.97;;;2.23;;
22034;SDS011;11181;51.002;4.356;2023-05-07T11:46:44;4.87;;;2.30;;
22034;SDS011;11181;51.002;4.356;2023-05-07T11:49:12;5.10;;;2.67;;
22034;SDS011;11181;51.002;4.356;2023-05-07T11:51:40;4.40;;;2.30;;
22034;SDS011;11181;51.002;4.356;2023-05-07T11:54:08;6.17;;;2.93;;
22034;SDS011;11181;51.002;4.356;2023-05-07T11:56:36;5.30;;;2.60;;
22034;SDS011;11181;51.002;4.356;2023-05-07T11:59:04;3.20;;;1.80;;
22034;SDS011;11181;51.002;4.356;2023-05-07T12:01:31;5.23;;;2.47;;
22034;SDS011;11181;51.002;4.356;2023-05-07T12:03:58;4.20;;;2.57;;
22034;SDS011;11181;51.002;4.356;2023-05-07T12:06:30;3.23;;;2.63;;
22034;SDS011;11181;51.002;4.356;2023-05-07T12:08:57;4.23;;;2.90;;
22034;SDS011;11181;51.002;4.356;2023-05-07T12:11:24;5.47;;;2.57;;
22034;SDS011;11181;51.002;4.356;2023-05-07T12:13:53;4.00;;;2.43;;
22034;SDS011;11181;51.002;4.356;2023-05-07T12:16:21;3.47;;;2.43;;
22034;SDS011;11181;51.002;4.356;2023-05-07T12:18:48;3.30;;;2.10;;
22034;SDS011;11181;51.002;4.356;2023-05-07T12:21:17;3.63;;;2.07;;
22034;SDS011;11181;51.002;4.356;2023-05-07T12:23:46;3.37;;;2.30;;
22034;SDS011;11181;51.002;4.356;2023-05-07T12:26:13;2.17;;;1.97;;
22034;SDS011;11181;51.002;4.356;2023-05-07T12:28:40;3.87;;;2.13;;
22034;SDS011;11181;51.002;4.356;2023-05-07T12:31:07;2.47;;;2.20;;
22034;SDS011;11181;51.002;4.356;2023-05-07T12:33:35;2.70;;;1.57;;
22034;SDS011;11181;51.002;4.356;2023-05-07T12:36:03;2.77;;;2.00;;
22034;SDS011;11181;51.002;4.356;2023-05-07T12:38:34;5.90;;;1.73;;
22034;SDS011;11181;51.002;4.356;2023-05-07T12:41:04;2.50;;;1.83;;
22034;SDS011;11181;51.002;4.356;2023-05-07T12:43:32;3.37;;;2.10;;
22034;SDS011;11181;51.002;4.356;2023-05-07T12:45:59;2.73;;;1.90;;
22034;SDS011;11181;51.002;4.356;2023-05-07T12:48:27;4.00;;;2.30;;
22034;SDS011;11181;51.002;4.356;2023-05-07T12:50:55;5.07;;;2.20;;
22034;SDS011;11181;51.002;4.356;2023-05-07T12:53:24;3.87;;;2.37;;
22034;SDS011;11181;51.002;4.356;2023-05-07T12:55:53;3.50;;;2.80;;
22034;SDS011;11181;51.002;4.356;2023-05-07T12:58:23;4.83;;;2.30;;
22034;SDS011;11181;51.002;4.356;2023-05-07T13:00:51;5.07;;;2.10;;
22034;SDS011;11181;51.002;4.356;2023-05-07T13:03:23;8.20;;;2.73;;
22034;SDS011;11181;51.002;4.356;2023-05-07T13:05:51;4.60;;;2.30;;
22034;SDS011;11181;51.002;4.356;2023-05-07T13:08:26;3.20;;;2.10;;
22034;SDS011;11181;51.002;4.356;2023-05-07T13:10:54;3.73;;;1.87;;
22034;SDS011;11181;51.002;4.356;2023-05-07T13:13:22;2.87;;;1.73;;
22034;SDS011;11181;51.002;4.356;2023-05-07T13:15:50;1.50;;;1.40;;
22034;SDS011;11181;51.002;4.356;2023-05-07T13:18:17;2.27;;;2.00;;
22034;SDS011;11181;51.002;4.356;2023-05-07T13:20:44;3.58;;;1.90;;
22034;SDS011;11181;51.002;4.356;2023-05-07T13:23:11;3.60;;;2.10;;
22034;SDS011;11181;51.002;4.356;2023-05-07T13:25:37;4.17;;;2.23;;
22034;SDS011;11181;51.002;4.356;2023-05-07T13:28:05;3.20;;;2.00;;
22034;SDS011;11181;51.002;4.356;2023-05-07T13:30:33;3.77;;;2.23;;
22034;SDS011;11181;51.002;4.356;2023-05-07T13:33:00;4.60;;;2.27;;
22034;SDS011;11181;51.002;4.356;2023-05-07T13:35:27;2.20;;;1.90;;
22034;SDS011;11181;51.002;4.356;2023-05-07T13:37:54;2.93;;;1.90;;
22034;SDS011;11181;51.002;4.356;2023-05-07T13:40:21;2.80;;;2.57;;
22034;SDS011;11181;51.002;4.356;2023-05-07T13:42:48;2.27;;;2.07;;
22034;SDS011;11181;51.002;4.356;2023-05-07T13:45:15;3.03;;;2.57;;
22034;SDS011;11181;51.002;4.356;2023-05-07T13:47:44;3.70;;;2.67;;
22034;SDS011;11181;51.002;4.356;2023-05-07T13:50:12;6.57;;;3.33;;
22034;SDS011;11181;51.002;4.356;2023-05-07T13:52:40;4.57;;;2.63;;
22034;SDS011;11181;51.002;4.356;2023-05-07T13:55:11;3.10;;;2.80;;
22034;SDS011;11181;51.002;4.356;2023-05-07T13:57:38;4.27;;;3.33;;
22034;SDS011;11181;51.002;4.356;2023-05-07T14:00:05;3.50;;;3.20;;
22034;SDS011;11181;51.002;4.356;2023-05-07T14:02:33;3.47;;;3.17;;
22034;SDS011;11181;51.002;4.356;2023-05-07T14:05:01;4.43;;;4.03;;
22034;SDS011;11181;51.002;4.356;2023-05-07T14:07:29;4.60;;;3.67;;
22034;SDS011;11181;51.002;4.356;2023-05-07T14:09:56;4.17;;;3.77;;
22034;SDS011;11181;51.002;4.356;2023-05-07T14:12:23;3.80;;;3.50;;
22034;SDS011;11181;51.002;4.356;2023-05-07T14:14:50;4.60;;;3.67;;
22034;SDS011;11181;51.002;4.356;2023-05-07T14:17:17;3.80;;;3.50;;
22034;SDS011;11181;51.002;4.356;2023-05-07T14:19:45;4.70;;;3.20;;
22034;SDS011;11181;51.002;4.356;2023-05-07T14:22:14;3.88;;;3.42;;
22034;SDS011;11181;51.002;4.356;2023-05-07T14:24:41;3.97;;;3.23;;
22034;SDS011;11181;51.002;4.356;2023-05-07T14:27:07;4.70;;;3.58;;
22034;SDS011;11181;51.002;4.356;2023-05-07T14:29:34;3.17;;;2.90;;
22034;SDS011;11181;51.002;4.356;2023-05-07T14:32:01;3.43;;;3.13;;
22034;SDS011;11181;51.002;4.356;2023-05-07T14:34:29;4.00;;;3.20;;
22034;SDS011;11181;51.002;4.356;2023-05-07T14:36:56;3.25;;;2.75;;
22034;SDS011;11181;51.002;4.356;2023-05-07T14:39:24;3.50;;;3.20;;
22034;SDS011;11181;51.002;4.356;2023-05-07T14:41:51;3.20;;;2.90;;
22034;SDS011;11181;51.002;4.356;2023-05-07T14:44:19;3.80;;;3.40;;
22034;SDS011;11181;51.002;4.356;2023-05-07T14:46:46;5.43;;;4.28;;
22034;SDS011;11181;51.002;4.356;2023-05-07T14:49:13;3.50;;;3.20;;
22034;SDS011;11181;51.002;4.356;2023-05-07T14:51:42;4.10;;;3.60;;
22034;SDS011;11181;51.002;4.356;2023-05-07T14:54:10;4.00;;;3.60;;
22034;SDS011;11181;51.002;4.356;2023-05-07T14:56:38;4.25;;;3.85;;
22034;SDS011;11181;51.002;4.356;2023-05-07T14:59:06;3.90;;;3.30;;
22034;SDS011;11181;51.002;4.356;2023-05-07T15:01:34;4.97;;;4.03;;
22034;SDS011;11181;51.002;4.356;2023-05-07T15:04:02;3.72;;;3.33;;
22034;SDS011;11181;51.002;4.356;2023-05-07T15:06:30;5.17;;;4.10;;